sensor_id;sensor_type;location;lat;lon;timestamp;temperature;humidity
22787;DHT22;63134;52.020;4.714;2023-12-20T00:01:11;8.50;99.90
22787;DHT22;63134;52.020;4.714;2023-12-20T00:03:57;8.40;99.90
22787;DHT22;63134;52.020;4.714;2023-12-20T00:06:43;8.40;99.90
22787;DHT22;63134;52.020;4.714;2023-12-20T00:09:29;8.40;99.90
22787;DHT22;63134;52.020;4.714;2023-12-20T00:12:14;8.30;99.90
22787;DHT22;63134;52.020;4.714;2023-12-20T00:15:00;8.30;99.90
22787;DHT22;63134;52.020;4.714;2023-12-20T00:17:45;8.30;99.90
22787;DHT22;63134;52.020;4.714;2023-12-20T00:20:32;8.30;99.90
22787;DHT22;63134;52.020;4.714;2023-12-20T00:23:17;8.50;99.90
22787;DHT22;63134;52.020;4.714;2023-12-20T00:26:03;8.60;99.90
22787;DHT22;63134;52.020;4.714;2023-12-20T00:28:48;8.60;99.90
22787;DHT22;63134;52.020;4.714;2023-12-20T00:31:34;8.60;99.90
22787;DHT22;63134;52.020;4.714;2023-12-20T00:34:19;8.60;99.90
22787;DHT22;63134;52.020;4.714;2023-12-20T00:37:05;8.60;99.90
22787;DHT22;63134;52.020;4.714;2023-12-20T00:39:51;8.60;99.90
22787;DHT22;63134;52.020;4.714;2023-12-20T00:42:37;8.60;99.90
22787;DHT22;63134;52.020;4.714;2023-12-20T00:45:22;8.60;99.90
22787;DHT22;63134;52.020;4.714;2023-12-20T00:48:08;8.60;99.90
22787;DHT22;63134;52.020;4.714;2023-12-20T00:50:53;8.60;99.90
22787;DHT22;63134;52.020;4.714;2023-12-20T00:53:38;8.60;99.90
22787;DHT22;63134;52.020;4.714;2023-12-20T00:56:24;8.80;99.90
22787;DHT22;63134;52.020;4.714;2023-12-20T00:59:09;8.90;99.90
22787;DHT22;63134;52.020;4.714;2023-12-20T01:01:55;9.00;99.90
22787;DHT22;63134;52.020;4.714;2023-12-20T01:04:41;9.10;99.90
22787;DHT22;63134;52.020;4.714;2023-12-20T01:07:26;9.10;99.90
22787;DHT22;63134;52.020;4.714;2023-12-20T01:10:12;9.00;99.90
22787;DHT22;63134;52.020;4.714;2023-12-20T01:12:58;9.00;99.90
22787;DHT22;63134;52.020;4.714;2023-12-20T01:15:43;9.10;99.90
22787;DHT22;63134;52.020;4.714;2023-12-20T01:18:29;9.10;99.90
22787;DHT22;63134;52.020;4.714;2023-12-20T01:21:15;9.20;99.90
22787;DHT22;63134;52.020;4.714;2023-12-20T01:24:00;9.20;99.90
22787;DHT22;63134;52.020;4.714;2023-12-20T01:26:46;9.20;99.90
22787;DHT22;63134;52.020;4.714;2023-12-20T01:29:31;9.20;99.90
22787;DHT22;63134;52.020;4.714;2023-12-20T01:32:17;9.10;99.90
22787;DHT22;63134;52.020;4.714;2023-12-20T01:35:02;9.20;99.90
22787;DHT22;63134;52.020;4.714;2023-12-20T01:37:48;9.20;99.90
22787;DHT22;63134;52.020;4.714;2023-12-20T01:40:34;9.30;99.90
22787;DHT22;63134;52.020;4.714;2023-12-20T01:43:19;9.20;99.90
22787;DHT22;63134;52.020;4.714;2023-12-20T01:46:05;9.30;99.90
22787;DHT22;63134;52.020;4.714;2023-12-20T01:48:51;9.30;99.90
22787;DHT22;63134;52.020;4.714;2023-12-20T01:51:37;9.30;99.90
22787;DHT22;63134;52.020;4.714;2023-12-20T01:54:23;9.30;99.90
22787;DHT22;63134;52.020;4.714;2023-12-20T01:57:08;9.30;99.90
22787;DHT22;63134;52.020;4.714;2023-12-20T01:59:55;9.30;99.90
22787;DHT22;63134;52.020;4.714;2023-12-20T02:02:41;9.40;99.90
22787;DHT22;63134;52.020;4.714;2023-12-20T02:05:31;9.30;99.90
22787;DHT22;63134;52.020;4.714;2023-12-20T02:08:16;9.40;99.90
22787;DHT22;63134;52.020;4.714;2023-12-20T02:11:02;9.40;99.90
22787;DHT22;63134;52.020;4.714;2023-12-20T02:13:47;9.30;99.90
22787;DHT22;63134;52.020;4.714;2023-12-20T02:16:33;9.40;99.90
22787;DHT22;63134;52.020;4.714;2023-12-20T02:19:20;9.40;99.90
22787;DHT22;63134;52.020;4.714;2023-12-20T02:22:10;9.50;99.90
22787;DHT22;63134;52.020;4.714;2023-12-20T02:24:56;9.50;99.90
22787;DHT22;63134;52.020;4.714;2023-12-20T02:27:42;9.50;99.90
22787;DHT22;63134;52.020;4.714;2023-12-20T02:30:28;9.60;99.90
22787;DHT22;63134;52.020;4.714;2023-12-20T02:33:14;9.70;99.90
22787;DHT22;63134;52.020;4.714;2023-12-20T02:36:00;9.70;99.90
22787;DHT22;63134;52.020;4.714;2023-12-20T02:38:46;9.70;99.90
22787;DHT22;63134;52.020;4.714;2023-12-20T02:41:32;9.50;99.90
22787;DHT22;63134;52.020;4.714;2023-12-20T02:44:17;9.40;99.90
22787;DHT22;63134;52.020;4.714;2023-12-20T02:47:03;9.40;99.90
22787;DHT22;63134;52.020;4.714;2023-12-20T02:49:49;9.20;99.90
22787;DHT22;63134;52.020;4.714;2023-12-20T02:52:34;9.20;99.90
22787;DHT22;63134;52.020;4.714;2023-12-20T02:55:20;9.30;99.90
22787;DHT22;63134;52.020;4.714;2023-12-20T02:58:05;9.40;99.90
22787;DHT22;63134;52.020;4.714;2023-12-20T03:00:51;9.40;99.90
22787;DHT22;63134;52.020;4.714;2023-12-20T03:03:36;9.40;99.90
22787;DHT22;63134;52.020;4.714;2023-12-20T03:06:22;9.40;99.90
22787;DHT22;63134;52.020;4.714;2023-12-20T03:09:08;9.40;99.90
22787;DHT22;63134;52.020;4.714;2023-12-20T03:11:53;9.40;99.90
22787;DHT22;63134;52.020;4.714;2023-12-20T03:14:39;9.30;99.90
22787;DHT22;63134;52.020;4.714;2023-12-20T03:17:24;9.30;99.90
22787;DHT22;63134;52.020;4.714;2023-12-20T03:20:10;9.40;99.90
22787;DHT22;63134;52.020;4.714;2023-12-20T03:22:55;9.40;99.90
22787;DHT22;63134;52.020;4.714;2023-12-20T03:25:41;9.30;99.70
22787;DHT22;63134;52.020;4.714;2023-12-20T03:28:27;9.30;99.90
22787;DHT22;63134;52.020;4.714;2023-12-20T03:31:13;9.30;99.90
22787;DHT22;63134;52.020;4.714;2023-12-20T03:33:58;9.40;99.80
22787;DHT22;63134;52.020;4.714;2023-12-20T03:36:44;9.50;99.50
22787;DHT22;63134;52.020;4.714;2023-12-20T03:39:33;9.50;99.00
22787;DHT22;63134;52.020;4.714;2023-12-20T03:42:18;9.50;98.80
22787;DHT22;63134;52.020;4.714;2023-12-20T03:45:04;9.50;98.30
22787;DHT22;63134;52.020;4.714;2023-12-20T03:47:49;9.50;97.90
22787;DHT22;63134;52.020;4.714;2023-12-20T03:50:35;9.40;97.70
22787;DHT22;63134;52.020;4.714;2023-12-20T03:53:20;9.40;98.00
22787;DHT22;63134;52.020;4.714;2023-12-20T03:56:06;9.40;97.80
22787;DHT22;63134;52.020;4.714;2023-12-20T03:58:51;9.30;97.50
22787;DHT22;63134;52.020;4.714;2023-12-20T04:01:37;9.30;97.50
22787;DHT22;63134;52.020;4.714;2023-12-20T04:04:23;9.20;97.50
22787;DHT22;63134;52.020;4.714;2023-12-20T04:07:09;9.10;97.90
22787;DHT22;63134;52.020;4.714;2023-12-20T04:09:55;9.20;98.10
22787;DHT22;63134;52.020;4.714;2023-12-20T04:12:40;9.30;97.90
22787;DHT22;63134;52.020;4.714;2023-12-20T04:15:26;9.40;97.90
22787;DHT22;63134;52.020;4.714;2023-12-20T04:18:11;9.40;97.80
22787;DHT22;63134;52.020;4.714;2023-12-20T04:20:57;9.40;97.30
22787;DHT22;63134;52.020;4.714;2023-12-20T04:23:42;9.50;97.10
22787;DHT22;63134;52.020;4.714;2023-12-20T04:26:28;9.50;97.00
22787;DHT22;63134;52.020;4.714;2023-12-20T04:29:14;9.50;97.00
22787;DHT22;63134;52.020;4.714;2023-12-20T04:32:00;9.50;97.20
22787;DHT22;63134;52.020;4.714;2023-12-20T04:34:46;9.40;97.10
22787;DHT22;63134;52.020;4.714;2023-12-20T04:37:31;9.40;96.70
22787;DHT22;63134;52.020;4.714;2023-12-20T04:40:17;9.30;96.70
22787;DHT22;63134;52.020;4.714;2023-12-20T04:43:03;9.10;96.60
22787;DHT22;63134;52.020;4.714;2023-12-20T04:45:48;9.00;97.10
22787;DHT22;63134;52.020;4.714;2023-12-20T04:48:33;8.90;97.30
22787;DHT22;63134;52.020;4.714;2023-12-20T04:51:19;8.90;97.60
22787;DHT22;63134;52.020;4.714;2023-12-20T04:54:04;8.90;97.80
22787;DHT22;63134;52.020;4.714;2023-12-20T04:56:50;8.90;97.70
22787;DHT22;63134;52.020;4.714;2023-12-20T04:59:35;8.90;98.10
22787;DHT22;63134;52.020;4.714;2023-12-20T05:02:21;9.00;98.30
22787;DHT22;63134;52.020;4.714;2023-12-20T05:05:07;9.00;97.60
22787;DHT22;63134;52.020;4.714;2023-12-20T05:07:52;9.00;97.50
22787;DHT22;63134;52.020;4.714;2023-12-20T05:10:38;9.10;97.60
22787;DHT22;63134;52.020;4.714;2023-12-20T05:13:25;9.10;97.40
22787;DHT22;63134;52.020;4.714;2023-12-20T05:16:26;9.10;96.90
22787;DHT22;63134;52.020;4.714;2023-12-20T05:19:11;9.00;96.70
22787;DHT22;63134;52.020;4.714;2023-12-20T05:21:57;8.90;97.10
22787;DHT22;63134;52.020;4.714;2023-12-20T05:24:43;8.80;97.50
22787;DHT22;63134;52.020;4.714;2023-12-20T05:27:28;9.00;97.90
22787;DHT22;63134;52.020;4.714;2023-12-20T05:30:13;9.00;97.90
22787;DHT22;63134;52.020;4.714;2023-12-20T05:32:59;9.10;97.90
22787;DHT22;63134;52.020;4.714;2023-12-20T05:35:44;9.10;97.70
22787;DHT22;63134;52.020;4.714;2023-12-20T05:38:30;9.20;97.80
22787;DHT22;63134;52.020;4.714;2023-12-20T05:41:16;9.30;97.60
22787;DHT22;63134;52.020;4.714;2023-12-20T05:44:01;9.40;97.50
22787;DHT22;63134;52.020;4.714;2023-12-20T05:46:47;9.40;97.20
22787;DHT22;63134;52.020;4.714;2023-12-20T05:49:32;9.40;97.30
22787;DHT22;63134;52.020;4.714;2023-12-20T05:52:18;9.40;97.00
22787;DHT22;63134;52.020;4.714;2023-12-20T05:55:04;9.50;97.00
22787;DHT22;63134;52.020;4.714;2023-12-20T05:57:49;9.60;96.90
22787;DHT22;63134;52.020;4.714;2023-12-20T06:00:35;9.50;96.80
22787;DHT22;63134;52.020;4.714;2023-12-20T06:03:20;9.60;96.90
22787;DHT22;63134;52.020;4.714;2023-12-20T06:06:06;9.60;96.60
22787;DHT22;63134;52.020;4.714;2023-12-20T06:09:00;9.60;96.80
22787;DHT22;63134;52.020;4.714;2023-12-20T06:11:48;9.60;96.70
22787;DHT22;63134;52.020;4.714;2023-12-20T06:14:33;9.70;96.40
22787;DHT22;63134;52.020;4.714;2023-12-20T06:17:19;9.70;96.30
22787;DHT22;63134;52.020;4.714;2023-12-20T06:20:04;9.70;96.30
22787;DHT22;63134;52.020;4.714;2023-12-20T06:22:53;9.80;96.30
22787;DHT22;63134;52.020;4.714;2023-12-20T06:25:38;9.70;95.90
22787;DHT22;63134;52.020;4.714;2023-12-20T06:28:24;9.80;96.00
22787;DHT22;63134;52.020;4.714;2023-12-20T06:31:09;9.80;95.80
22787;DHT22;63134;52.020;4.714;2023-12-20T06:33:55;9.80;95.80
22787;DHT22;63134;52.020;4.714;2023-12-20T06:36:43;9.80;95.70
22787;DHT22;63134;52.020;4.714;2023-12-20T06:39:29;9.90;95.70
22787;DHT22;63134;52.020;4.714;2023-12-20T06:42:16;9.90;95.60
22787;DHT22;63134;52.020;4.714;2023-12-20T06:45:01;9.90;95.50
22787;DHT22;63134;52.020;4.714;2023-12-20T06:47:46;9.90;95.30
22787;DHT22;63134;52.020;4.714;2023-12-20T06:50:32;9.90;95.10
22787;DHT22;63134;52.020;4.714;2023-12-20T06:53:18;9.90;95.40
22787;DHT22;63134;52.020;4.714;2023-12-20T06:56:04;9.90;95.20
22787;DHT22;63134;52.020;4.714;2023-12-20T06:58:49;10.00;95.20
22787;DHT22;63134;52.020;4.714;2023-12-20T07:01:35;10.00;95.20
22787;DHT22;63134;52.020;4.714;2023-12-20T07:04:20;10.00;95.00
22787;DHT22;63134;52.020;4.714;2023-12-20T07:07:07;10.00;94.90
22787;DHT22;63134;52.020;4.714;2023-12-20T07:09:53;10.00;94.90
22787;DHT22;63134;52.020;4.714;2023-12-20T07:12:39;10.00;95.00
22787;DHT22;63134;52.020;4.714;2023-12-20T07:15:24;10.00;95.00
22787;DHT22;63134;52.020;4.714;2023-12-20T07:18:10;10.00;94.80
22787;DHT22;63134;52.020;4.714;2023-12-20T07:20:56;9.90;94.80
22787;DHT22;63134;52.020;4.714;2023-12-20T07:23:41;9.80;94.90
22787;DHT22;63134;52.020;4.714;2023-12-20T07:26:27;9.60;95.00
22787;DHT22;63134;52.020;4.714;2023-12-20T07:29:12;9.60;95.40
22787;DHT22;63134;52.020;4.714;2023-12-20T07:31:58;9.50;95.30
22787;DHT22;63134;52.020;4.714;2023-12-20T07:34:44;9.40;95.60
22787;DHT22;63134;52.020;4.714;2023-12-20T07:37:29;9.40;96.10
22787;DHT22;63134;52.020;4.714;2023-12-20T07:40:15;9.40;96.00
22787;DHT22;63134;52.020;4.714;2023-12-20T07:43:03;9.40;96.00
22787;DHT22;63134;52.020;4.714;2023-12-20T07:45:48;9.40;96.20
22787;DHT22;63134;52.020;4.714;2023-12-20T07:48:35;9.40;96.40
22787;DHT22;63134;52.020;4.714;2023-12-20T07:51:20;9.40;96.90
22787;DHT22;63134;52.020;4.714;2023-12-20T07:54:06;9.50;96.90
22787;DHT22;63134;52.020;4.714;2023-12-20T07:56:53;9.60;96.50
22787;DHT22;63134;52.020;4.714;2023-12-20T07:59:38;9.70;96.50
22787;DHT22;63134;52.020;4.714;2023-12-20T08:02:24;9.70;96.30
22787;DHT22;63134;52.020;4.714;2023-12-20T08:05:09;9.80;96.30
22787;DHT22;63134;52.020;4.714;2023-12-20T08:07:55;9.80;96.20
22787;DHT22;63134;52.020;4.714;2023-12-20T08:10:40;9.80;96.10
22787;DHT22;63134;52.020;4.714;2023-12-20T08:13:26;9.90;96.00
22787;DHT22;63134;52.020;4.714;2023-12-20T08:16:12;10.00;96.00
22787;DHT22;63134;52.020;4.714;2023-12-20T08:18:58;10.00;95.90
22787;DHT22;63134;52.020;4.714;2023-12-20T08:21:44;10.10;95.80
22787;DHT22;63134;52.020;4.714;2023-12-20T08:24:30;10.10;95.70
22787;DHT22;63134;52.020;4.714;2023-12-20T08:27:15;10.20;95.40
22787;DHT22;63134;52.020;4.714;2023-12-20T08:30:00;10.20;95.40
22787;DHT22;63134;52.020;4.714;2023-12-20T08:32:46;10.30;95.20
22787;DHT22;63134;52.020;4.714;2023-12-20T08:35:31;10.30;95.00
22787;DHT22;63134;52.020;4.714;2023-12-20T08:38:17;10.30;94.80
22787;DHT22;63134;52.020;4.714;2023-12-20T08:41:03;10.40;94.70
22787;DHT22;63134;52.020;4.714;2023-12-20T08:43:50;10.40;94.40
22787;DHT22;63134;52.020;4.714;2023-12-20T08:46:36;10.50;94.30
22787;DHT22;63134;52.020;4.714;2023-12-20T08:49:22;10.50;94.10
22787;DHT22;63134;52.020;4.714;2023-12-20T08:52:07;10.50;94.20
22787;DHT22;63134;52.020;4.714;2023-12-20T08:54:53;10.60;93.90
22787;DHT22;63134;52.020;4.714;2023-12-20T08:57:39;10.60;93.60
22787;DHT22;63134;52.020;4.714;2023-12-20T09:00:24;10.70;93.50
22787;DHT22;63134;52.020;4.714;2023-12-20T09:03:13;10.80;93.20
22787;DHT22;63134;52.020;4.714;2023-12-20T09:05:58;10.80;92.80
22787;DHT22;63134;52.020;4.714;2023-12-20T09:08:44;10.80;92.70
22787;DHT22;63134;52.020;4.714;2023-12-20T09:11:29;10.80;92.70
22787;DHT22;63134;52.020;4.714;2023-12-20T09:14:15;10.80;92.70
22787;DHT22;63134;52.020;4.714;2023-12-20T09:17:00;10.90;92.80
22787;DHT22;63134;52.020;4.714;2023-12-20T09:19:46;11.00;92.40
22787;DHT22;63134;52.020;4.714;2023-12-20T09:22:32;11.00;92.40
22787;DHT22;63134;52.020;4.714;2023-12-20T09:25:17;11.00;92.40
22787;DHT22;63134;52.020;4.714;2023-12-20T09:28:03;11.00;92.30
22787;DHT22;63134;52.020;4.714;2023-12-20T09:30:48;11.10;92.20
22787;DHT22;63134;52.020;4.714;2023-12-20T09:33:34;11.10;92.20
22787;DHT22;63134;52.020;4.714;2023-12-20T09:36:19;11.10;92.20
22787;DHT22;63134;52.020;4.714;2023-12-20T09:39:05;11.10;92.10
22787;DHT22;63134;52.020;4.714;2023-12-20T09:42:01;11.20;92.20
22787;DHT22;63134;52.020;4.714;2023-12-20T09:44:47;11.20;92.10
22787;DHT22;63134;52.020;4.714;2023-12-20T09:47:33;11.20;92.00
22787;DHT22;63134;52.020;4.714;2023-12-20T09:50:20;11.30;92.00
22787;DHT22;63134;52.020;4.714;2023-12-20T09:53:08;11.30;91.90
22787;DHT22;63134;52.020;4.714;2023-12-20T09:56:00;11.40;91.80
22787;DHT22;63134;52.020;4.714;2023-12-20T09:58:46;11.40;91.70
22787;DHT22;63134;52.020;4.714;2023-12-20T10:01:34;11.50;91.70
22787;DHT22;63134;52.020;4.714;2023-12-20T10:04:20;11.60;91.70
22787;DHT22;63134;52.020;4.714;2023-12-20T10:07:15;11.60;91.50
22787;DHT22;63134;52.020;4.714;2023-12-20T10:10:02;11.60;91.30
22787;DHT22;63134;52.020;4.714;2023-12-20T10:13:07;11.70;91.00
22787;DHT22;63134;52.020;4.714;2023-12-20T10:15:55;11.80;90.90
22787;DHT22;63134;52.020;4.714;2023-12-20T10:18:40;11.80;90.70
22787;DHT22;63134;52.020;4.714;2023-12-20T10:21:27;11.80;90.40
22787;DHT22;63134;52.020;4.714;2023-12-20T10:24:17;11.90;90.20
22787;DHT22;63134;52.020;4.714;2023-12-20T10:27:04;11.90;90.20
22787;DHT22;63134;52.020;4.714;2023-12-20T10:29:50;12.00;89.90
22787;DHT22;63134;52.020;4.714;2023-12-20T10:32:36;12.00;89.20
22787;DHT22;63134;52.020;4.714;2023-12-20T10:35:21;12.00;88.40
22787;DHT22;63134;52.020;4.714;2023-12-20T10:38:07;11.90;88.60
22787;DHT22;63134;52.020;4.714;2023-12-20T10:40:56;12.00;88.40
22787;DHT22;63134;52.020;4.714;2023-12-20T10:43:43;12.10;88.30
22787;DHT22;63134;52.020;4.714;2023-12-20T10:46:31;12.00;88.50
22787;DHT22;63134;52.020;4.714;2023-12-20T10:49:18;12.00;88.20
22787;DHT22;63134;52.020;4.714;2023-12-20T10:52:05;12.10;87.90
22787;DHT22;63134;52.020;4.714;2023-12-20T10:54:52;12.00;88.50
22787;DHT22;63134;52.020;4.714;2023-12-20T10:57:38;12.10;88.20
22787;DHT22;63134;52.020;4.714;2023-12-20T11:00:24;12.20;87.90
22787;DHT22;63134;52.020;4.714;2023-12-20T11:03:11;12.30;87.90
22787;DHT22;63134;52.020;4.714;2023-12-20T11:06:06;12.30;87.80
22787;DHT22;63134;52.020;4.714;2023-12-20T11:09:17;12.30;87.90
22787;DHT22;63134;52.020;4.714;2023-12-20T11:12:41;12.30;88.10
22787;DHT22;63134;52.020;4.714;2023-12-20T11:15:30;12.30;87.70
22787;DHT22;63134;52.020;4.714;2023-12-20T11:18:15;12.20;88.40
22787;DHT22;63134;52.020;4.714;2023-12-20T11:21:04;12.30;88.20
22787;DHT22;63134;52.020;4.714;2023-12-20T11:23:49;12.30;87.80
22787;DHT22;63134;52.020;4.714;2023-12-20T11:26:35;12.30;87.90
22787;DHT22;63134;52.020;4.714;2023-12-20T11:29:35;12.30;88.40
22787;DHT22;63134;52.020;4.714;2023-12-20T11:38:01;12.30;87.70
22787;DHT22;63134;52.020;4.714;2023-12-20T11:40:48;12.30;86.70
22787;DHT22;63134;52.020;4.714;2023-12-20T11:43:37;12.30;87.90
22787;DHT22;63134;52.020;4.714;2023-12-20T11:46:23;12.40;87.40
22787;DHT22;63134;52.020;4.714;2023-12-20T11:49:09;12.40;87.00
22787;DHT22;63134;52.020;4.714;2023-12-20T11:51:55;12.40;87.40
22787;DHT22;63134;52.020;4.714;2023-12-20T11:54:40;12.50;86.70
22787;DHT22;63134;52.020;4.714;2023-12-20T11:57:25;12.30;87.20
22787;DHT22;63134;52.020;4.714;2023-12-20T12:00:14;12.30;87.20
22787;DHT22;63134;52.020;4.714;2023-12-20T12:02:59;12.30;87.30
22787;DHT22;63134;52.020;4.714;2023-12-20T12:05:47;12.30;87.30
22787;DHT22;63134;52.020;4.714;2023-12-20T12:08:33;12.30;87.10
22787;DHT22;63134;52.020;4.714;2023-12-20T12:11:19;12.30;87.10
22787;DHT22;63134;52.020;4.714;2023-12-20T12:14:06;12.40;87.10
22787;DHT22;63134;52.020;4.714;2023-12-20T12:16:52;12.40;87.20
22787;DHT22;63134;52.020;4.714;2023-12-20T12:19:39;12.50;86.70
22787;DHT22;63134;52.020;4.714;2023-12-20T12:22:25;12.40;87.20
22787;DHT22;63134;52.020;4.714;2023-12-20T12:25:13;12.50;87.30
22787;DHT22;63134;52.020;4.714;2023-12-20T12:28:00;12.50;86.00
22787;DHT22;63134;52.020;4.714;2023-12-20T12:30:58;12.50;85.20
22787;DHT22;63134;52.020;4.714;2023-12-20T12:33:45;12.60;85.50
22787;DHT22;63134;52.020;4.714;2023-12-20T12:36:32;12.50;85.40
22787;DHT22;63134;52.020;4.714;2023-12-20T12:39:18;12.60;85.00
22787;DHT22;63134;52.020;4.714;2023-12-20T12:42:04;12.70;84.70
22787;DHT22;63134;52.020;4.714;2023-12-20T12:44:49;12.80;84.20
22787;DHT22;63134;52.020;4.714;2023-12-20T12:47:35;12.80;83.50
22787;DHT22;63134;52.020;4.714;2023-12-20T12:50:20;12.80;82.90
22787;DHT22;63134;52.020;4.714;2023-12-20T12:53:06;12.70;83.60
22787;DHT22;63134;52.020;4.714;2023-12-20T12:55:52;12.60;83.50
22787;DHT22;63134;52.020;4.714;2023-12-20T12:58:39;12.60;83.80
22787;DHT22;63134;52.020;4.714;2023-12-20T13:01:24;12.50;83.70
22787;DHT22;63134;52.020;4.714;2023-12-20T13:04:10;12.50;84.10
22787;DHT22;63134;52.020;4.714;2023-12-20T13:06:57;12.40;83.90
22787;DHT22;63134;52.020;4.714;2023-12-20T13:09:42;12.40;84.10
22787;DHT22;63134;52.020;4.714;2023-12-20T13:12:28;12.30;84.60
22787;DHT22;63134;52.020;4.714;2023-12-20T13:15:14;12.30;85.10
22787;DHT22;63134;52.020;4.714;2023-12-20T13:18:00;12.30;84.70
22787;DHT22;63134;52.020;4.714;2023-12-20T13:20:45;12.30;85.60
22787;DHT22;63134;52.020;4.714;2023-12-20T13:23:31;12.30;86.00
22787;DHT22;63134;52.020;4.714;2023-12-20T13:26:16;12.30;86.10
22787;DHT22;63134;52.020;4.714;2023-12-20T13:29:02;12.30;86.40
22787;DHT22;63134;52.020;4.714;2023-12-20T13:31:49;12.30;86.50
22787;DHT22;63134;52.020;4.714;2023-12-20T13:34:34;12.30;86.70
22787;DHT22;63134;52.020;4.714;2023-12-20T13:37:21;12.30;87.00
22787;DHT22;63134;52.020;4.714;2023-12-20T13:40:07;12.20;87.10
22787;DHT22;63134;52.020;4.714;2023-12-20T13:42:53;12.10;87.50
22787;DHT22;63134;52.020;4.714;2023-12-20T13:45:40;12.00;87.70
22787;DHT22;63134;52.020;4.714;2023-12-20T13:48:25;12.00;88.30
22787;DHT22;63134;52.020;4.714;2023-12-20T13:51:11;12.00;88.70
22787;DHT22;63134;52.020;4.714;2023-12-20T13:53:56;12.00;89.20
22787;DHT22;63134;52.020;4.714;2023-12-20T13:56:42;12.00;89.30
22787;DHT22;63134;52.020;4.714;2023-12-20T13:59:49;12.00;89.50
22787;DHT22;63134;52.020;4.714;2023-12-20T14:02:35;12.00;89.70
22787;DHT22;63134;52.020;4.714;2023-12-20T14:05:21;11.90;90.00
22787;DHT22;63134;52.020;4.714;2023-12-20T14:08:13;11.80;90.00
22787;DHT22;63134;52.020;4.714;2023-12-20T14:10:59;11.80;90.00
22787;DHT22;63134;52.020;4.714;2023-12-20T14:13:46;11.70;90.40
22787;DHT22;63134;52.020;4.714;2023-12-20T14:16:32;11.70;90.40
22787;DHT22;63134;52.020;4.714;2023-12-20T14:19:18;11.70;90.60
22787;DHT22;63134;52.020;4.714;2023-12-20T14:22:03;11.60;90.70
22787;DHT22;63134;52.020;4.714;2023-12-20T14:24:49;11.60;90.80
22787;DHT22;63134;52.020;4.714;2023-12-20T14:27:35;11.60;91.00
22787;DHT22;63134;52.020;4.714;2023-12-20T14:30:21;11.60;91.20
22787;DHT22;63134;52.020;4.714;2023-12-20T14:33:06;11.50;91.10
22787;DHT22;63134;52.020;4.714;2023-12-20T14:35:52;11.50;91.30
22787;DHT22;63134;52.020;4.714;2023-12-20T14:38:37;11.50;91.70
22787;DHT22;63134;52.020;4.714;2023-12-20T14:41:23;11.50;91.50
22787;DHT22;63134;52.020;4.714;2023-12-20T14:44:10;11.50;91.60
22787;DHT22;63134;52.020;4.714;2023-12-20T14:46:55;11.40;91.70
22787;DHT22;63134;52.020;4.714;2023-12-20T14:49:42;11.40;91.80
22787;DHT22;63134;52.020;4.714;2023-12-20T14:52:27;11.40;91.80
22787;DHT22;63134;52.020;4.714;2023-12-20T14:55:13;11.40;92.00
22787;DHT22;63134;52.020;4.714;2023-12-20T14:57:59;11.40;92.10
22787;DHT22;63134;52.020;4.714;2023-12-20T15:00:44;11.40;92.10
22787;DHT22;63134;52.020;4.714;2023-12-20T15:03:30;11.30;92.00
22787;DHT22;63134;52.020;4.714;2023-12-20T15:06:16;11.10;92.30
22787;DHT22;63134;52.020;4.714;2023-12-20T15:09:02;11.00;92.70
22787;DHT22;63134;52.020;4.714;2023-12-20T15:11:50;11.00;93.00
22787;DHT22;63134;52.020;4.714;2023-12-20T15:14:35;10.90;93.20
22787;DHT22;63134;52.020;4.714;2023-12-20T15:17:21;10.80;93.50
22787;DHT22;63134;52.020;4.714;2023-12-20T15:20:07;10.80;93.80
22787;DHT22;63134;52.020;4.714;2023-12-20T15:22:56;10.70;94.10
22787;DHT22;63134;52.020;4.714;2023-12-20T15:25:44;10.70;94.30
22787;DHT22;63134;52.020;4.714;2023-12-20T15:28:30;10.70;94.30
22787;DHT22;63134;52.020;4.714;2023-12-20T15:31:16;10.70;94.30
22787;DHT22;63134;52.020;4.714;2023-12-20T15:34:02;10.70;94.50
22787;DHT22;63134;52.020;4.714;2023-12-20T15:36:47;10.70;94.80
22787;DHT22;63134;52.020;4.714;2023-12-20T15:39:33;10.70;95.00
22787;DHT22;63134;52.020;4.714;2023-12-20T15:42:19;10.60;95.00
22787;DHT22;63134;52.020;4.714;2023-12-20T15:45:05;10.60;95.20
22787;DHT22;63134;52.020;4.714;2023-12-20T15:47:53;10.60;95.40
22787;DHT22;63134;52.020;4.714;2023-12-20T15:50:38;10.50;95.40
22787;DHT22;63134;52.020;4.714;2023-12-20T15:53:24;10.50;95.60
22787;DHT22;63134;52.020;4.714;2023-12-20T15:56:09;10.50;96.00
22787;DHT22;63134;52.020;4.714;2023-12-20T15:58:55;10.50;96.10
22787;DHT22;63134;52.020;4.714;2023-12-20T16:01:42;10.50;96.20
22787;DHT22;63134;52.020;4.714;2023-12-20T16:04:38;10.50;96.50
22787;DHT22;63134;52.020;4.714;2023-12-20T16:07:23;10.40;96.70
22787;DHT22;63134;52.020;4.714;2023-12-20T16:10:09;10.50;96.90
22787;DHT22;63134;52.020;4.714;2023-12-20T16:12:54;10.40;97.10
22787;DHT22;63134;52.020;4.714;2023-12-20T16:15:41;10.40;97.40
22787;DHT22;63134;52.020;4.714;2023-12-20T16:18:27;10.40;97.30
22787;DHT22;63134;52.020;4.714;2023-12-20T16:21:13;10.40;97.40
22787;DHT22;63134;52.020;4.714;2023-12-20T16:23:59;10.40;97.70
22787;DHT22;63134;52.020;4.714;2023-12-20T16:26:45;10.40;97.80
22787;DHT22;63134;52.020;4.714;2023-12-20T16:29:30;10.40;98.20
22787;DHT22;63134;52.020;4.714;2023-12-20T16:32:16;10.40;98.20
22787;DHT22;63134;52.020;4.714;2023-12-20T16:35:02;10.30;98.40
22787;DHT22;63134;52.020;4.714;2023-12-20T16:37:49;10.30;98.70
22787;DHT22;63134;52.020;4.714;2023-12-20T16:40:34;10.30;99.40
22787;DHT22;63134;52.020;4.714;2023-12-20T16:43:20;10.30;99.50
22787;DHT22;63134;52.020;4.714;2023-12-20T16:46:05;10.30;99.90
22787;DHT22;63134;52.020;4.714;2023-12-20T16:48:51;10.30;99.90
22787;DHT22;63134;52.020;4.714;2023-12-20T16:51:37;10.30;99.90
22787;DHT22;63134;52.020;4.714;2023-12-20T16:54:22;10.20;99.90
22787;DHT22;63134;52.020;4.714;2023-12-20T16:57:08;10.20;99.90
22787;DHT22;63134;52.020;4.714;2023-12-20T16:59:53;10.20;99.90
22787;DHT22;63134;52.020;4.714;2023-12-20T17:02:39;10.20;99.90
22787;DHT22;63134;52.020;4.714;2023-12-20T17:05:24;10.20;99.90
22787;DHT22;63134;52.020;4.714;2023-12-20T17:08:10;10.20;99.90
22787;DHT22;63134;52.020;4.714;2023-12-20T17:10:56;10.20;99.90
22787;DHT22;63134;52.020;4.714;2023-12-20T17:13:42;10.20;99.90
22787;DHT22;63134;52.020;4.714;2023-12-20T17:16:28;10.20;99.90
22787;DHT22;63134;52.020;4.714;2023-12-20T17:19:14;10.20;99.90
22787;DHT22;63134;52.020;4.714;2023-12-20T17:22:00;10.20;99.90
22787;DHT22;63134;52.020;4.714;2023-12-20T17:24:46;10.30;99.90
22787;DHT22;63134;52.020;4.714;2023-12-20T17:27:31;10.30;99.90
22787;DHT22;63134;52.020;4.714;2023-12-20T17:30:17;10.30;99.90
22787;DHT22;63134;52.020;4.714;2023-12-20T17:33:03;10.40;99.90
22787;DHT22;63134;52.020;4.714;2023-12-20T17:35:49;10.40;99.90
22787;DHT22;63134;52.020;4.714;2023-12-20T17:38:39;10.40;99.90
22787;DHT22;63134;52.020;4.714;2023-12-20T17:41:25;10.50;99.90
22787;DHT22;63134;52.020;4.714;2023-12-20T17:44:11;10.50;99.90